sensor_id;sensor_type;location;lat;lon;timestamp;P1;durP1;ratioP1;P2;durP2;ratioP2
43504;SDS011;29098;48.184;16.298;2022-07-23T00:00:45;12.35;;;9.55;;
43504;SDS011;29098;48.184;16.298;2022-07-23T00:03:12;11.05;;;9.05;;
43504;SDS011;29098;48.184;16.298;2022-07-23T00:05:40;12.02;;;9.18;;
43504;SDS011;29098;48.184;16.298;2022-07-23T00:08:06;12.10;;;9.45;;
43504;SDS011;29098;48.184;16.298;2022-07-23T00:10:34;9.55;;;8.10;;
43504;SDS011;29098;48.184;16.298;2022-07-23T00:13:00;10.73;;;8.10;;
43504;SDS011;29098;48.184;16.298;2022-07-23T00:15:25;10.85;;;8.93;;
43504;SDS011;29098;48.184;16.298;2022-07-23T00:17:51;13.13;;;8.68;;
43504;SDS011;29098;48.184;16.298;2022-07-23T00:20:17;10.93;;;8.90;;
43504;SDS011;29098;48.184;16.298;2022-07-23T00:22:50;11.45;;;8.90;;
43504;SDS011;29098;48.184;16.298;2022-07-23T00:25:17;9.00;;;8.07;;
43504;SDS011;29098;48.184;16.298;2022-07-23T00:27:43;9.70;;;8.45;;
43504;SDS011;29098;48.184;16.298;2022-07-23T00:30:09;10.13;;;8.75;;
43504;SDS011;29098;48.184;16.298;2022-07-23T00:32:47;10.98;;;8.77;;
43504;SDS011;29098;48.184;16.298;2022-07-23T00:35:21;11.60;;;8.20;;
43504;SDS011;29098;48.184;16.298;2022-07-23T00:37:48;11.00;;;8.38;;
43504;SDS011;29098;48.184;16.298;2022-07-23T00:40:14;11.38;;;8.65;;
43504;SDS011;29098;48.184;16.298;2022-07-23T00:42:40;11.07;;;8.77;;
43504;SDS011;29098;48.184;16.298;2022-07-23T00:45:09;12.85;;;9.95;;
43504;SDS011;29098;48.184;16.298;2022-07-23T00:47:35;12.10;;;8.82;;
43504;SDS011;29098;48.184;16.298;2022-07-23T00:50:00;9.82;;;7.65;;
43504;SDS011;29098;48.184;16.298;2022-07-23T00:52:28;11.65;;;8.70;;
43504;SDS011;29098;48.184;16.298;2022-07-23T00:54:57;14.15;;;9.02;;
43504;SDS011;29098;48.184;16.298;2022-07-23T00:57:22;11.50;;;9.10;;
43504;SDS011;29098;48.184;16.298;2022-07-23T00:59:48;11.98;;;8.50;;
43504;SDS011;29098;48.184;16.298;2022-07-23T01:02:14;11.75;;;8.60;;
43504;SDS011;29098;48.184;16.298;2022-07-23T01:04:39;10.00;;;8.32;;
43504;SDS011;29098;48.184;16.298;2022-07-23T01:07:05;13.38;;;8.93;;
43504;SDS011;29098;48.184;16.298;2022-07-23T01:09:32;11.18;;;8.68;;
43504;SDS011;29098;48.184;16.298;2022-07-23T01:11:58;10.63;;;8.45;;
43504;SDS011;29098;48.184;16.298;2022-07-23T01:14:26;11.80;;;9.48;;
43504;SDS011;29098;48.184;16.298;2022-07-23T01:16:51;12.57;;;8.55;;
43504;SDS011;29098;48.184;16.298;2022-07-23T01:19:17;12.52;;;8.18;;
43504;SDS011;29098;48.184;16.298;2022-07-23T01:21:44;10.75;;;8.05;;
43504;SDS011;29098;48.184;16.298;2022-07-23T01:24:12;10.07;;;8.98;;
43504;SDS011;29098;48.184;16.298;2022-07-23T01:26:39;15.35;;;9.35;;
43504;SDS011;29098;48.184;16.298;2022-07-23T01:29:07;11.77;;;8.68;;
43504;SDS011;29098;48.184;16.298;2022-07-23T01:31:32;10.90;;;7.30;;
43504;SDS011;29098;48.184;16.298;2022-07-23T01:33:58;13.57;;;8.65;;
43504;SDS011;29098;48.184;16.298;2022-07-23T01:36:24;13.50;;;8.85;;
43504;SDS011;29098;48.184;16.298;2022-07-23T01:38:49;12.63;;;7.90;;
43504;SDS011;29098;48.184;16.298;2022-07-23T01:41:15;10.77;;;9.02;;
43504;SDS011;29098;48.184;16.298;2022-07-23T01:43:41;13.23;;;9.57;;
43504;SDS011;29098;48.184;16.298;2022-07-23T01:46:07;12.63;;;7.88;;
43504;SDS011;29098;48.184;16.298;2022-07-23T01:48:32;11.40;;;8.77;;
43504;SDS011;29098;48.184;16.298;2022-07-23T01:50:58;10.68;;;8.60;;
43504;SDS011;29098;48.184;16.298;2022-07-23T01:53:23;11.02;;;8.88;;
43504;SDS011;29098;48.184;16.298;2022-07-23T01:55:49;11.75;;;9.50;;
43504;SDS011;29098;48.184;16.298;2022-07-23T01:58:14;15.98;;;8.88;;
43504;SDS011;29098;48.184;16.298;2022-07-23T02:00:40;11.55;;;8.95;;
43504;SDS011;29098;48.184;16.298;2022-07-23T02:03:05;12.75;;;9.38;;
43504;SDS011;29098;48.184;16.298;2022-07-23T02:05:31;13.43;;;8.88;;
43504;SDS011;29098;48.184;16.298;2022-07-23T02:07:59;12.38;;;9.40;;
43504;SDS011;29098;48.184;16.298;2022-07-23T02:10:26;14.68;;;9.25;;
43504;SDS011;29098;48.184;16.298;2022-07-23T02:12:52;12.23;;;8.98;;
43504;SDS011;29098;48.184;16.298;2022-07-23T02:15:18;14.57;;;9.80;;
43504;SDS011;29098;48.184;16.298;2022-07-23T02:17:46;13.43;;;9.07;;
43504;SDS011;29098;48.184;16.298;2022-07-23T02:20:12;13.77;;;9.95;;
43504;SDS011;29098;48.184;16.298;2022-07-23T02:22:37;13.02;;;10.10;;
43504;SDS011;29098;48.184;16.298;2022-07-23T02:25:04;13.98;;;8.80;;
43504;SDS011;29098;48.184;16.298;2022-07-23T02:27:30;10.48;;;8.57;;
43504;SDS011;29098;48.184;16.298;2022-07-23T02:29:56;11.82;;;9.07;;
43504;SDS011;29098;48.184;16.298;2022-07-23T02:32:22;12.95;;;8.90;;
43504;SDS011;29098;48.184;16.298;2022-07-23T02:34:48;10.30;;;8.70;;
43504;SDS011;29098;48.184;16.298;2022-07-23T02:37:13;11.00;;;9.02;;
43504;SDS011;29098;48.184;16.298;2022-07-23T02:39:39;11.13;;;8.90;;
43504;SDS011;29098;48.184;16.298;2022-07-23T02:42:05;11.25;;;9.00;;
43504;SDS011;29098;48.184;16.298;2022-07-23T02:44:31;11.05;;;8.55;;
43504;SDS011;29098;48.184;16.298;2022-07-23T02:46:57;11.73;;;9.27;;
43504;SDS011;29098;48.184;16.298;2022-07-23T02:49:22;14.13;;;9.73;;
43504;SDS011;29098;48.184;16.298;2022-07-23T02:51:48;13.27;;;8.73;;
43504;SDS011;29098;48.184;16.298;2022-07-23T02:54:13;12.70;;;9.25;;
43504;SDS011;29098;48.184;16.298;2022-07-23T02:56:39;10.88;;;8.48;;
43504;SDS011;29098;48.184;16.298;2022-07-23T02:59:04;10.57;;;8.90;;
43504;SDS011;29098;48.184;16.298;2022-07-23T03:01:30;13.50;;;9.07;;
43504;SDS011;29098;48.184;16.298;2022-07-23T03:03:55;13.55;;;9.20;;
43504;SDS011;29098;48.184;16.298;2022-07-23T03:06:20;12.40;;;9.65;;
43504;SDS011;29098;48.184;16.298;2022-07-23T03:08:46;11.63;;;8.70;;
43504;SDS011;29098;48.184;16.298;2022-07-23T03:11:12;13.05;;;9.18;;
43504;SDS011;29098;48.184;16.298;2022-07-23T03:13:37;14.40;;;8.70;;
43504;SDS011;29098;48.184;16.298;2022-07-23T03:16:03;13.32;;;8.50;;
43504;SDS011;29098;48.184;16.298;2022-07-23T03:18:29;12.85;;;8.73;;
43504;SDS011;29098;48.184;16.298;2022-07-23T03:20:55;11.07;;;9.23;;
43504;SDS011;29098;48.184;16.298;2022-07-23T03:23:20;11.02;;;9.15;;
43504;SDS011;29098;48.184;16.298;2022-07-23T03:25:46;10.65;;;9.27;;
43504;SDS011;29098;48.184;16.298;2022-07-23T03:28:13;10.82;;;9.00;;
43504;SDS011;29098;48.184;16.298;2022-07-23T03:30:41;10.90;;;8.85;;
43504;SDS011;29098;48.184;16.298;2022-07-23T03:33:13;10.38;;;9.10;;
43504;SDS011;29098;48.184;16.298;2022-07-23T03:35:39;9.77;;;8.77;;
43504;SDS011;29098;48.184;16.298;2022-07-23T03:38:05;10.05;;;9.00;;
43504;SDS011;29098;48.184;16.298;2022-07-23T03:40:30;13.32;;;9.18;;
43504;SDS011;29098;48.184;16.298;2022-07-23T03:42:56;10.68;;;8.93;;
43504;SDS011;29098;48.184;16.298;2022-07-23T03:45:21;11.52;;;8.70;;
43504;SDS011;29098;48.184;16.298;2022-07-23T03:47:47;12.35;;;9.02;;
43504;SDS011;29098;48.184;16.298;2022-07-23T03:50:12;11.10;;;8.50;;
43504;SDS011;29098;48.184;16.298;2022-07-23T03:52:38;11.77;;;9.60;;
43504;SDS011;29098;48.184;16.298;2022-07-23T03:55:03;11.50;;;8.60;;
43504;SDS011;29098;48.184;16.298;2022-07-23T03:57:29;16.33;;;9.10;;
43504;SDS011;29098;48.184;16.298;2022-07-23T03:59:55;10.27;;;8.95;;
43504;SDS011;29098;48.184;16.298;2022-07-23T04:02:21;10.63;;;9.07;;
43504;SDS011;29098;48.184;16.298;2022-07-23T04:04:46;11.73;;;9.20;;
43504;SDS011;29098;48.184;16.298;2022-07-23T04:07:12;13.65;;;8.93;;
43504;SDS011;29098;48.184;16.298;2022-07-23T04:09:38;10.15;;;9.15;;
43504;SDS011;29098;48.184;16.298;2022-07-23T04:12:05;13.35;;;9.07;;
43504;SDS011;29098;48.184;16.298;2022-07-23T04:14:31;11.18;;;8.80;;
43504;SDS011;29098;48.184;16.298;2022-07-23T04:16:57;10.77;;;8.15;;
43504;SDS011;29098;48.184;16.298;2022-07-23T04:19:23;11.90;;;7.90;;
43504;SDS011;29098;48.184;16.298;2022-07-23T04:21:48;10.00;;;8.13;;
43504;SDS011;29098;48.184;16.298;2022-07-23T04:24:14;13.85;;;9.65;;
43504;SDS011;29098;48.184;16.298;2022-07-23T04:26:39;11.15;;;8.60;;
43504;SDS011;29098;48.184;16.298;2022-07-23T04:29:05;10.93;;;8.40;;
43504;SDS011;29098;48.184;16.298;2022-07-23T04:31:30;11.02;;;9.43;;
43504;SDS011;29098;48.184;16.298;2022-07-23T04:33:58;10.60;;;9.10;;
43504;SDS011;29098;48.184;16.298;2022-07-23T04:36:23;10.52;;;8.63;;
43504;SDS011;29098;48.184;16.298;2022-07-23T04:38:51;11.77;;;8.85;;
43504;SDS011;29098;48.184;16.298;2022-07-23T04:41:16;14.88;;;8.98;;
43504;SDS011;29098;48.184;16.298;2022-07-23T04:43:42;11.40;;;8.93;;
43504;SDS011;29098;48.184;16.298;2022-07-23T04:46:07;12.60;;;9.65;;
43504;SDS011;29098;48.184;16.298;2022-07-23T04:48:33;12.77;;;8.93;;
43504;SDS011;29098;48.184;16.298;2022-07-23T04:50:58;10.30;;;8.60;;
43504;SDS011;29098;48.184;16.298;2022-07-23T04:53:24;11.02;;;8.57;;
43504;SDS011;29098;48.184;16.298;2022-07-23T04:55:49;12.05;;;8.45;;
43504;SDS011;29098;48.184;16.298;2022-07-23T04:58:15;11.20;;;8.77;;
43504;SDS011;29098;48.184;16.298;2022-07-23T05:00:40;10.05;;;8.18;;
43504;SDS011;29098;48.184;16.298;2022-07-23T05:03:06;11.25;;;8.93;;
43504;SDS011;29098;48.184;16.298;2022-07-23T05:05:31;11.13;;;9.00;;
43504;SDS011;29098;48.184;16.298;2022-07-23T05:07:56;11.73;;;9.02;;
43504;SDS011;29098;48.184;16.298;2022-07-23T05:10:22;12.43;;;8.02;;
43504;SDS011;29098;48.184;16.298;2022-07-23T05:12:47;12.40;;;8.43;;
43504;SDS011;29098;48.184;16.298;2022-07-23T05:15:13;11.15;;;8.27;;
43504;SDS011;29098;48.184;16.298;2022-07-23T05:17:40;13.50;;;8.82;;
43504;SDS011;29098;48.184;16.298;2022-07-23T05:20:06;10.23;;;8.05;;
43504;SDS011;29098;48.184;16.298;2022-07-23T05:22:32;9.75;;;7.93;;
43504;SDS011;29098;48.184;16.298;2022-07-23T05:24:58;11.30;;;8.05;;
43504;SDS011;29098;48.184;16.298;2022-07-23T05:27:23;9.68;;;8.10;;
43504;SDS011;29098;48.184;16.298;2022-07-23T05:29:49;12.57;;;7.72;;
43504;SDS011;29098;48.184;16.298;2022-07-23T05:32:14;13.43;;;9.10;;
43504;SDS011;29098;48.184;16.298;2022-07-23T05:34:40;9.73;;;7.65;;
43504;SDS011;29098;48.184;16.298;2022-07-23T05:37:05;10.52;;;8.13;;
43504;SDS011;29098;48.184;16.298;2022-07-23T05:39:31;10.95;;;8.10;;
43504;SDS011;29098;48.184;16.298;2022-07-23T05:41:56;9.38;;;7.88;;
43504;SDS011;29098;48.184;16.298;2022-07-23T05:44:22;11.15;;;7.68;;
43504;SDS011;29098;48.184;16.298;2022-07-23T05:46:48;9.05;;;7.43;;
43504;SDS011;29098;48.184;16.298;2022-07-23T05:49:13;10.25;;;8.05;;
43504;SDS011;29098;48.184;16.298;2022-07-23T05:51:38;10.40;;;8.35;;
43504;SDS011;29098;48.184;16.298;2022-07-23T05:54:04;9.77;;;7.88;;
43504;SDS011;29098;48.184;16.298;2022-07-23T05:56:29;9.45;;;7.65;;
43504;SDS011;29098;48.184;16.298;2022-07-23T05:58:55;10.70;;;7.57;;
43504;SDS011;29098;48.184;16.298;2022-07-23T06:01:20;8.48;;;7.18;;
43504;SDS011;29098;48.184;16.298;2022-07-23T06:03:46;10.30;;;6.90;;
43504;SDS011;29098;48.184;16.298;2022-07-23T06:06:11;13.18;;;7.95;;
43504;SDS011;29098;48.184;16.298;2022-07-23T06:08:37;11.00;;;7.50;;
43504;SDS011;29098;48.184;16.298;2022-07-23T06:11:02;9.80;;;7.20;;
43504;SDS011;29098;48.184;16.298;2022-07-23T06:13:27;9.27;;;7.68;;
43504;SDS011;29098;48.184;16.298;2022-07-23T06:15:53;9.85;;;7.18;;
43504;SDS011;29098;48.184;16.298;2022-07-23T06:18:18;10.35;;;7.20;;
43504;SDS011;29098;48.184;16.298;2022-07-23T06:20:44;11.07;;;8.05;;
43504;SDS011;29098;48.184;16.298;2022-07-23T06:23:09;11.07;;;7.47;;
43504;SDS011;29098;48.184;16.298;2022-07-23T06:25:38;10.10;;;7.60;;
43504;SDS011;29098;48.184;16.298;2022-07-23T06:28:04;9.82;;;7.20;;
43504;SDS011;29098;48.184;16.298;2022-07-23T06:30:30;9.70;;;7.22;;
43504;SDS011;29098;48.184;16.298;2022-07-23T06:32:56;9.10;;;6.88;;
43504;SDS011;29098;48.184;16.298;2022-07-23T06:35:21;9.55;;;7.57;;
43504;SDS011;29098;48.184;16.298;2022-07-23T06:37:47;8.88;;;5.95;;
43504;SDS011;29098;48.184;16.298;2022-07-23T06:40:13;8.77;;;6.40;;
43504;SDS011;29098;48.184;16.298;2022-07-23T06:42:38;7.75;;;6.00;;
43504;SDS011;29098;48.184;16.298;2022-07-23T06:45:07;8.02;;;6.57;;
43504;SDS011;29098;48.184;16.298;2022-07-23T06:47:32;7.10;;;5.65;;
43504;SDS011;29098;48.184;16.298;2022-07-23T06:49:58;8.20;;;6.20;;
43504;SDS011;29098;48.184;16.298;2022-07-23T06:52:24;6.72;;;5.75;;
43504;SDS011;29098;48.184;16.298;2022-07-23T06:54:50;6.80;;;5.55;;
43504;SDS011;29098;48.184;16.298;2022-07-23T06:57:16;9.15;;;5.63;;
43504;SDS011;29098;48.184;16.298;2022-07-23T06:59:41;7.70;;;5.25;;
43504;SDS011;29098;48.184;16.298;2022-07-23T07:02:07;7.47;;;5.55;;
43504;SDS011;29098;48.184;16.298;2022-07-23T07:04:33;6.53;;;5.28;;
43504;SDS011;29098;48.184;16.298;2022-07-23T07:06:59;7.03;;;5.15;;
43504;SDS011;29098;48.184;16.298;2022-07-23T07:09:24;7.60;;;4.90;;
43504;SDS011;29098;48.184;16.298;2022-07-23T07:11:50;6.75;;;4.75;;
43504;SDS011;29098;48.184;16.298;2022-07-23T07:14:15;5.43;;;4.15;;
43504;SDS011;29098;48.184;16.298;2022-07-23T07:16:41;6.72;;;4.40;;
43504;SDS011;29098;48.184;16.298;2022-07-23T07:19:06;6.30;;;4.38;;
43504;SDS011;29098;48.184;16.298;2022-07-23T07:21:32;6.30;;;4.47;;
43504;SDS011;29098;48.184;16.298;2022-07-23T07:23:57;6.55;;;4.45;;
43504;SDS011;29098;48.184;16.298;2022-07-23T07:26:23;7.75;;;5.28;;
43504;SDS011;29098;48.184;16.298;2022-07-23T07:28:48;8.63;;;4.40;;
43504;SDS011;29098;48.184;16.298;2022-07-23T07:31:14;6.88;;;5.03;;
43504;SDS011;29098;48.184;16.298;2022-07-23T07:33:39;5.57;;;4.43;;
43504;SDS011;29098;48.184;16.298;2022-07-23T07:36:05;5.57;;;4.45;;
43504;SDS011;29098;48.184;16.298;2022-07-23T07:38:30;5.90;;;4.45;;
43504;SDS011;29098;48.184;16.298;2022-07-23T07:40:56;4.78;;;3.63;;
43504;SDS011;29098;48.184;16.298;2022-07-23T07:43:21;6.82;;;4.63;;
43504;SDS011;29098;48.184;16.298;2022-07-23T07:45:47;6.20;;;4.10;;
43504;SDS011;29098;48.184;16.298;2022-07-23T07:48:12;5.53;;;4.20;;
43504;SDS011;29098;48.184;16.298;2022-07-23T07:50:38;5.30;;;4.28;;
43504;SDS011;29098;48.184;16.298;2022-07-23T07:53:03;7.20;;;4.00;;
43504;SDS011;29098;48.184;16.298;2022-07-23T07:55:29;5.15;;;3.65;;
43504;SDS011;29098;48.184;16.298;2022-07-23T07:57:56;5.85;;;4.20;;
43504;SDS011;29098;48.184;16.298;2022-07-23T08:00:21;6.43;;;4.90;;
43504;SDS011;29098;48.184;16.298;2022-07-23T08:02:48;6.28;;;4.20;;
43504;SDS011;29098;48.184;16.298;2022-07-23T08:05:18;7.70;;;4.43;;
43504;SDS011;29098;48.184;16.298;2022-07-23T08:07:47;6.43;;;4.13;;
43504;SDS011;29098;48.184;16.298;2022-07-23T08:10:14;5.00;;;3.88;;
43504;SDS011;29098;48.184;16.298;2022-07-23T08:12:40;6.82;;;4.63;;
43504;SDS011;29098;48.184;16.298;2022-07-23T08:15:07;7.07;;;4.38;;
43504;SDS011;29098;48.184;16.298;2022-07-23T08:17:33;6.18;;;4.75;;
43504;SDS011;29098;48.184;16.298;2022-07-23T08:19:59;6.85;;;4.80;;
43504;SDS011;29098;48.184;16.298;2022-07-23T08:22:51;8.07;;;5.03;;
43504;SDS011;29098;48.184;16.298;2022-07-23T08:25:31;5.43;;;3.97;;
43504;SDS011;29098;48.184;16.298;2022-07-23T08:27:59;5.78;;;4.38;;
43504;SDS011;29098;48.184;16.298;2022-07-23T08:30:26;8.30;;;4.53;;
43504;SDS011;29098;48.184;16.298;2022-07-23T08:32:53;6.70;;;4.47;;
43504;SDS011;29098;48.184;16.298;2022-07-23T08:35:48;6.95;;;5.00;;
43504;SDS011;29098;48.184;16.298;2022-07-23T08:38:22;6.78;;;5.00;;
43504;SDS011;29098;48.184;16.298;2022-07-23T08:40:51;6.00;;;4.80;;
43504;SDS011;29098;48.184;16.298;2022-07-23T08:43:22;7.93;;;5.20;;
43504;SDS011;29098;48.184;16.298;2022-07-23T08:45:50;8.07;;;4.50;;
43504;SDS011;29098;48.184;16.298;2022-07-23T08:48:22;8.13;;;5.30;;
43504;SDS011;29098;48.184;16.298;2022-07-23T08:50:50;6.55;;;4.65;;
43504;SDS011;29098;48.184;16.298;2022-07-23T08:53:20;5.90;;;4.68;;
43504;SDS011;29098;48.184;16.298;2022-07-23T08:55:48;6.68;;;4.80;;
43504;SDS011;29098;48.184;16.298;2022-07-23T08:58:18;5.55;;;4.75;;
43504;SDS011;29098;48.184;16.298;2022-07-23T09:00:44;8.95;;;5.18;;
43504;SDS011;29098;48.184;16.298;2022-07-23T09:03:18;7.00;;;5.20;;
43504;SDS011;29098;48.184;16.298;2022-07-23T09:05:45;7.32;;;5.25;;
43504;SDS011;29098;48.184;16.298;2022-07-23T09:08:18;6.30;;;4.70;;
43504;SDS011;29098;48.184;16.298;2022-07-23T09:15:49;8.07;;;5.45;;
43504;SDS011;29098;48.184;16.298;2022-07-23T09:18:15;7.03;;;4.68;;
43504;SDS011;29098;48.184;16.298;2022-07-23T09:20:41;7.35;;;5.47;;
43504;SDS011;29098;48.184;16.298;2022-07-23T09:23:08;6.00;;;4.63;;
43504;SDS011;29098;48.184;16.298;2022-07-23T09:25:33;7.18;;;5.03;;
43504;SDS011;29098;48.184;16.298;2022-07-23T09:27:59;6.60;;;4.70;;
43504;SDS011;29098;48.184;16.298;2022-07-23T09:30:28;5.68;;;4.68;;
43504;SDS011;29098;48.184;16.298;2022-07-23T09:33:06;6.80;;;5.88;;
43504;SDS011;29098;48.184;16.298;2022-07-23T09:35:46;6.90;;;4.85;;
43504;SDS011;29098;48.184;16.298;2022-07-23T09:38:14;7.20;;;4.68;;
43504;SDS011;29098;48.184;16.298;2022-07-23T09:40:41;5.97;;;5.03;;
43504;SDS011;29098;48.184;16.298;2022-07-23T09:43:06;5.50;;;4.80;;
43504;SDS011;29098;48.184;16.298;2022-07-23T09:45:32;6.38;;;4.47;;
43504;SDS011;29098;48.184;16.298;2022-07-23T09:48:16;7.85;;;5.47;;
43504;SDS011;29098;48.184;16.298;2022-07-23T09:50:46;6.35;;;5.13;;
43504;SDS011;29098;48.184;16.298;2022-07-23T09:53:25;12.65;;;5.13;;
43504;SDS011;29098;48.184;16.298;2022-07-23T09:55:51;8.07;;;5.38;;
43504;SDS011;29098;48.184;16.298;2022-07-23T09:58:22;7.20;;;5.20;;
43504;SDS011;29098;48.184;16.298;2022-07-23T10:00:48;6.32;;;4.68;;
43504;SDS011;29098;48.184;16.298;2022-07-23T10:03:15;7.32;;;5.28;;
43504;SDS011;29098;48.184;16.298;2022-07-23T10:05:42;7.47;;;5.38;;
43504;SDS011;29098;48.184;16.298;2022-07-23T10:08:11;8.48;;;5.53;;
43504;SDS011;29098;48.184;16.298;2022-07-23T10:10:40;7.85;;;5.82;;
43504;SDS011;29098;48.184;16.298;2022-07-23T10:13:06;6.55;;;5.63;;
43504;SDS011;29098;48.184;16.298;2022-07-23T10:15:50;6.72;;;5.75;;
43504;SDS011;29098;48.184;16.298;2022-07-23T10:18:16;7.18;;;5.60;;
43504;SDS011;29098;48.184;16.298;2022-07-23T10:20:45;6.85;;;5.65;;
43504;SDS011;29098;48.184;16.298;2022-07-23T10:23:24;9.30;;;6.28;;
43504;SDS011;29098;48.184;16.298;2022-07-23T10:26:05;8.60;;;5.97;;
43504;SDS011;29098;48.184;16.298;2022-07-23T10:28:56;7.07;;;5.68;;
43504;SDS011;29098;48.184;16.298;2022-07-23T10:31:56;6.70;;;5.53;;
43504;SDS011;29098;48.184;16.298;2022-07-23T10:34:42;7.13;;;6.32;;
43504;SDS011;29098;48.184;16.298;2022-07-23T10:38:00;6.65;;;5.70;;
43504;SDS011;29098;48.184;16.298;2022-07-23T10:42:42;8.10;;;5.60;;
43504;SDS011;29098;48.184;16.298;2022-07-23T10:45:31;8.85;;;5.57;;
43504;SDS011;29098;48.184;16.298;2022-07-23T10:48:10;8.75;;;5.25;;
43504;SDS011;29098;48.184;16.298;2022-07-23T10:51:07;7.15;;;5.55;;
43504;SDS011;29098;48.184;16.298;2022-07-23T10:56:16;7.82;;;5.32;;
43504;SDS011;29098;48.184;16.298;2022-07-23T10:59:05;8.38;;;5.70;;
43504;SDS011;29098;48.184;16.298;2022-07-23T11:01:31;8.95;;;5.15;;
43504;SDS011;29098;48.184;16.298;2022-07-23T11:03:59;7.28;;;5.68;;
43504;SDS011;29098;48.184;16.298;2022-07-23T11:06:41;7.93;;;5.43;;
43504;SDS011;29098;48.184;16.298;2022-07-23T11:09:28;8.57;;;5.10;;
43504;SDS011;29098;48.184;16.298;2022-07-23T11:18:19;8.38;;;5.22;;
43504;SDS011;29098;48.184;16.298;2022-07-23T11:20:20;6.55;;;5.40;;
43504;SDS011;29098;48.184;16.298;2022-07-23T11:22:49;8.13;;;5.18;;
43504;SDS011;29098;48.184;16.298;2022-07-23T11:27:55;7.63;;;5.60;;
43504;SDS011;29098;48.184;16.298;2022-07-23T11:35:42;7.97;;;5.72;;
43504;SDS011;29098;48.184;16.298;2022-07-23T11:38:19;8.40;;;6.15;;
43504;SDS011;29098;48.184;16.298;2022-07-23T11:40:48;8.57;;;5.53;;
43504;SDS011;29098;48.184;16.298;2022-07-23T11:43:15;6.90;;;5.18;;
43504;SDS011;29098;48.184;16.298;2022-07-23T11:45:42;11.00;;;6.65;;
43504;SDS011;29098;48.184;16.298;2022-07-23T11:48:14;8.90;;;6.00;;
43504;SDS011;29098;48.184;16.298;2022-07-23T11:50:42;7.88;;;6.03;;
43504;SDS011;29098;48.184;16.298;2022-07-23T11:53:07;9.23;;;6.85;;
43504;SDS011;29098;48.184;16.298;2022-07-23T11:55:33;8.35;;;5.43;;
43504;SDS011;29098;48.184;16.298;2022-07-23T11:57:59;7.60;;;5.68;;
43504;SDS011;29098;48.184;16.298;2022-07-23T12:00:25;6.75;;;5.35;;
43504;SDS011;29098;48.184;16.298;2022-07-23T12:02:54;8.40;;;6.03;;
43504;SDS011;29098;48.184;16.298;2022-07-23T12:05:33;8.05;;;5.68;;
43504;SDS011;29098;48.184;16.298;2022-07-23T12:08:01;8.00;;;5.93;;
43504;SDS011;29098;48.184;16.298;2022-07-23T12:10:30;7.55;;;6.38;;
43504;SDS011;29098;48.184;16.298;2022-07-23T12:13:03;7.65;;;5.55;;
43504;SDS011;29098;48.184;16.298;2022-07-23T12:15:38;10.20;;;5.45;;
43504;SDS011;29098;48.184;16.298;2022-07-23T12:18:08;5.85;;;4.80;;
43504;SDS011;29098;48.184;16.298;2022-07-23T12:20:39;7.63;;;5.05;;
43504;SDS011;29098;48.184;16.298;2022-07-23T12:23:07;6.32;;;4.90;;
43504;SDS011;29098;48.184;16.298;2022-07-23T12:25:35;7.90;;;5.28;;
43504;SDS011;29098;48.184;16.298;2022-07-23T12:30:37;7.93;;;4.88;;
43504;SDS011;29098;48.184;16.298;2022-07-23T12:33:09;6.33;;;5.50;;
43504;SDS011;29098;48.184;16.298;2022-07-23T12:35:39;7.10;;;4.82;;
43504;SDS011;29098;48.184;16.298;2022-07-23T12:38:11;6.68;;;4.85;;
43504;SDS011;29098;48.184;16.298;2022-07-23T12:51:15;5.55;;;3.85;;
43504;SDS011;29098;48.184;16.298;2022-07-23T12:53:45;5.63;;;4.03;;
43504;SDS011;29098;48.184;16.298;2022-07-23T12:56:20;6.25;;;3.97;;
43504;SDS011;29098;48.184;16.298;2022-07-23T12:58:48;4.50;;;3.10;;
43504;SDS011;29098;48.184;16.298;2022-07-23T13:06:26;4.05;;;2.95;;
43504;SDS011;29098;48.184;16.298;2022-07-23T13:08:56;8.23;;;4.43;;
43504;SDS011;29098;48.184;16.298;2022-07-23T13:11:21;4.32;;;2.58;;
43504;SDS011;29098;48.184;16.298;2022-07-23T13:13:47;8.32;;;2.67;;
43504;SDS011;29098;48.184;16.298;2022-07-23T13:16:12;4.00;;;2.53;;
43504;SDS011;29098;48.184;16.298;2022-07-23T13:18:38;4.30;;;2.60;;
43504;SDS011;29098;48.184;16.298;2022-07-23T13:21:03;4.88;;;2.50;;
43504;SDS011;29098;48.184;16.298;2022-07-23T13:23:29;4.72;;;2.65;;
43504;SDS011;29098;48.184;16.298;2022-07-23T13:25:54;5.97;;;2.90;;
43504;SDS011;29098;48.184;16.298;2022-07-23T13:28:20;6.40;;;2.88;;
43504;SDS011;29098;48.184;16.298;2022-07-23T13:30:48;3.60;;;2.42;;
43504;SDS011;29098;48.184;16.298;2022-07-23T13:33:16;6.07;;;3.03;;
43504;SDS011;29098;48.184;16.298;2022-07-23T13:35:42;4.93;;;2.60;;
43504;SDS011;29098;48.184;16.298;2022-07-23T13:38:08;5.85;;;2.85;;
43504;SDS011;29098;48.184;16.298;2022-07-23T13:40:35;3.60;;;2.45;;
43504;SDS011;29098;48.184;16.298;2022-07-23T13:43:03;5.75;;;2.60;;
43504;SDS011;29098;48.184;16.298;2022-07-23T13:45:31;4.15;;;2.80;;
43504;SDS011;29098;48.184;16.298;2022-07-23T13:47:56;3.53;;;2.42;;
43504;SDS011;29098;48.184;16.298;2022-07-23T13:50:22;5.55;;;2.80;;
43504;SDS011;29098;48.184;16.298;2022-07-23T13:52:48;4.68;;;2.70;;
43504;SDS011;29098;48.184;16.298;2022-07-23T13:55:14;3.67;;;2.40;;
43504;SDS011;29098;48.184;16.298;2022-07-23T13:57:39;3.80;;;2.45;;
43504;SDS011;29098;48.184;16.298;2022-07-23T14:00:05;5.65;;;3.58;;
43504;SDS011;29098;48.184;16.298;2022-07-23T14:02:32;4.53;;;2.70;;
43504;SDS011;29098;48.184;16.298;2022-07-23T14:04:58;4.90;;;2.67;;
43504;SDS011;29098;48.184;16.298;2022-07-23T14:07:23;5.40;;;2.90;;
43504;SDS011;29098;48.184;16.298;2022-07-23T14:09:49;4.13;;;2.55;;
43504;SDS011;29098;48.184;16.298;2022-07-23T14:12:14;6.25;;;2.55;;
43504;SDS011;29098;48.184;16.298;2022-07-23T14:14:40;4.18;;;2.65;;
43504;SDS011;29098;48.184;16.298;2022-07-23T14:17:05;5.47;;;2.88;;
43504;SDS011;29098;48.184;16.298;2022-07-23T14:19:31;3.28;;;2.20;;
43504;SDS011;29098;48.184;16.298;2022-07-23T14:21:57;5.22;;;2.72;;
43504;SDS011;29098;48.184;16.298;2022-07-23T14:24:22;5.70;;;2.65;;
43504;SDS011;29098;48.184;16.298;2022-07-23T14:26:47;5.10;;;3.00;;
43504;SDS011;29098;48.184;16.298;2022-07-23T14:29:13;5.05;;;2.75;;
43504;SDS011;29098;48.184;16.298;2022-07-23T14:31:39;5.75;;;2.65;;
43504;SDS011;29098;48.184;16.298;2022-07-23T14:34:04;4.57;;;2.65;;
43504;SDS011;29098;48.184;16.298;2022-07-23T14:36:30;4.95;;;2.90;;
43504;SDS011;29098;48.184;16.298;2022-07-23T14:38:55;4.40;;;2.80;;
43504;SDS011;29098;48.184;16.298;2022-07-23T14:41:21;4.68;;;3.00;;
43504;SDS011;29098;48.184;16.298;2022-07-23T14:43:48;7.00;;;3.25;;
43504;SDS011;29098;48.184;16.298;2022-07-23T14:46:14;5.68;;;2.75;;
43504;SDS011;29098;48.184;16.298;2022-07-23T14:48:39;4.63;;;3.00;;
43504;SDS011;29098;48.184;16.298;2022-07-23T14:51:05;4.30;;;2.92;;
43504;SDS011;29098;48.184;16.298;2022-07-23T14:53:30;4.90;;;3.25;;
43504;SDS011;29098;48.184;16.298;2022-07-23T14:55:56;6.15;;;3.42;;
43504;SDS011;29098;48.184;16.298;2022-07-23T14:58:22;6.35;;;3.03;;
43504;SDS011;29098;48.184;16.298;2022-07-23T15:00:48;4.95;;;3.85;;
43504;SDS011;29098;48.184;16.298;2022-07-23T15:03:14;4.53;;;3.45;;
43504;SDS011;29098;48.184;16.298;2022-07-23T15:05:40;5.05;;;3.50;;
43504;SDS011;29098;48.184;16.298;2022-07-23T15:08:05;4.35;;;3.40;;
43504;SDS011;29098;48.184;16.298;2022-07-23T15:10:31;5.22;;;3.75;;
43504;SDS011;29098;48.184;16.298;2022-07-23T15:12:56;7.88;;;3.42;;